sim
Sign-in with your pilot id or email,
or register
Callsign
Passwort

Schedule Details

Flight Number: RYR1878 (2)
Departure: Memmingen Airport (EDJA) at 16:25
Arrival: Thessaloniki International Airport (LGTS) at 18:35
Route: Ryanair Passenger Schedule. Enter filed route here before submitting Pirep.

Weather Information
Getting current METAR information for EDJA 211850Z 06006KT 9999 BKN048 15/12 Q1027
Getting current METAR information for LGTS 211850Z 11004KT CAVOK 27/13 Q1017 NOSIG

Schedule Frequency

Route Map